TimeCAT,TemperatureF,Dew PointF,Humidity,Sea Level PressureIn,VisibilityMPH,Wind Direction,Wind SpeedMPH,Gust SpeedMPH,PrecipitationIn,Events,Conditions,WindDirDegrees,DateUTC
12:00 AM,64.4,57.2,77,30.15,6.2,ESE,12.7,-,N/A,,Overcast,110,2012-10-13 22:00:00
1:00 AM,59.0,59.0,100,30.15,6.2,East,17.3,-,N/A,,Overcast,90,2012-10-13 23:00:00
2:00 AM,64.4,57.2,77,30.12,6.2,ESE,13.8,-,N/A,,Overcast,110,2012-10-14 00:00:00
3:00 AM,66.2,57.2,73,30.12,6.2,East,12.7,-,N/A,,Mostly Cloudy,90,2012-10-14 01:00:00
5:00 AM,64.4,59.0,83,30.12,6.2,East,13.8,-,N/A,,Mostly Cloudy,80,2012-10-14 03:00:00
6:00 AM,62.6,59.0,88,30.12,6.2,East,9.2,-,N/A,,Mostly Cloudy,100,2012-10-14 04:00:00
7:00 AM,64.4,59.0,83,30.12,6.2,East,11.5,-,N/A,,Scattered Clouds,100,2012-10-14 05:00:00
8:00 AM,69,59,62,,6,East,15.0,,,,Partly Cloudy,90,2012-10-14 06:00:00
8:00 AM,68.0,59.0,73,30.15,6.2,East,15.0,-,N/A,,Scattered Clouds,90,2012-10-14 06:00:00
9:00 AM,71.6,59.0,64,30.15,6.2,East,16.1,-,N/A,,Scattered Clouds,100,2012-10-14 07:00:00
10:00 AM,75.2,57.2,53,30.15,6.2,East,11.5,-,N/A,,Scattered Clouds,80,2012-10-14 08:00:00
11:00 AM,78.8,57.2,47,30.12,6.2,ESE,15.0,-,N/A,,Scattered Clouds,110,2012-10-14 09:00:00
12:00 PM,80.6,57.2,45,30.09,6.2,ENE,12.7,-,N/A,,Scattered Clouds,70,2012-10-14 10:00:00
1:00 PM,82.4,57.2,42,30.06,6.2,East,11.5,-,N/A,,Mostly Cloudy,90,2012-10-14 11:00:00
2:00 PM,84.2,57.2,40,30.04,6.2,East,13.8,-,N/A,,Mostly Cloudy,100,2012-10-14 12:00:00
3:00 PM,84.2,57.2,40,30.04,6.2,SE,17.3,-,N/A,,Mostly Cloudy,130,2012-10-14 13:00:00
4:00 PM,84.2,55.4,37,30.01,6.2,East,11.5,-,N/A,,Mostly Cloudy,90,2012-10-14 14:00:00
5:00 PM,82.4,55.4,39,30.01,6.2,ESE,12.7,-,N/A,,Scattered Clouds,110,2012-10-14 15:00:00
6:00 PM,80.6,55.4,42,30.04,6.2,ESE,16.1,-,N/A,,Partly Cloudy,110,2012-10-14 16:00:00
7:00 PM,78.8,55.4,44,30.06,6.2,ESE,16.1,-,N/A,,Partly Cloudy,110,2012-10-14 17:00:00
8:00 PM,76,55,38,,6,East,16.1,,,,Scattered Clouds,100,2012-10-14 18:00:00
8:00 PM,77.0,55.4,47,30.06,6.2,East,16.1,-,N/A,,Partly Cloudy,100,2012-10-14 18:00:00
9:00 PM,75.2,55.4,50,30.09,6.2,East,13.8,-,N/A,,Partly Cloudy,100,2012-10-14 19:00:00
10:00 PM,73.4,57.2,57,30.12,-9999.0,East,13.8,-,N/A,,Clear,90,2012-10-14 20:00:00
11:00 PM,71.6,57.2,60,30.12,-9999.0,East,10.4,-,N/A,,Clear,80,2012-10-14 21:00:00